createdAt,value
2023-02-19T00:01:37.275Z,14.08
2023-02-19T00:04:07.348Z,14.10
2023-02-19T00:06:37.313Z,14.06
2023-02-19T00:09:06.331Z,14.05
2023-02-19T00:11:36.145Z,14.01
2023-02-19T00:14:05.080Z,13.99
2023-02-19T00:16:35.581Z,13.97
2023-02-19T00:19:06.489Z,13.90
2023-02-19T00:21:36.777Z,13.91
2023-02-19T00:24:07.001Z,13.85
2023-02-19T00:26:35.829Z,13.77
2023-02-19T00:29:04.347Z,13.71
2023-02-19T00:31:34.264Z,13.66
2023-02-19T00:34:05.138Z,13.68
2023-02-19T00:36:36.208Z,13.70
2023-02-19T00:39:06.834Z,13.67
2023-02-19T00:41:35.540Z,13.68
2023-02-19T00:44:06.081Z,13.65
2023-02-19T00:46:36.466Z,13.62
2023-02-19T00:49:06.510Z,13.63
2023-02-19T00:51:37.068Z,13.60
2023-02-19T00:54:07.416Z,13.59
2023-02-19T00:56:35.881Z,13.58
2023-02-19T00:59:04.291Z,13.54
2023-02-19T01:01:32.791Z,13.54
2023-02-19T01:04:01.177Z,13.52
2023-02-19T01:06:32.762Z,13.51
2023-02-19T01:09:01.218Z,13.47
2023-02-19T01:11:30.967Z,13.36
2023-02-19T01:14:00.185Z,13.31
2023-02-19T01:16:28.720Z,13.24
2023-02-19T01:18:58.502Z,13.22
2023-02-19T01:21:28.586Z,13.18
2023-02-19T01:23:57.896Z,13.12
2023-02-19T01:26:29.511Z,13.02
2023-02-19T01:28:59.243Z,12.97
2023-02-19T01:31:28.209Z,12.93
2023-02-19T01:33:58.186Z,12.87
2023-02-19T01:36:27.234Z,12.82
2023-02-19T01:38:55.820Z,12.78
2023-02-19T01:41:25.940Z,12.76
2023-02-19T01:44:01.405Z,12.70
2023-02-19T01:46:31.036Z,12.73
2023-02-19T01:49:02.225Z,12.66
2023-02-19T01:51:33.873Z,12.64
2023-02-19T01:54:05.869Z,12.62
2023-02-19T01:56:38.425Z,12.55
2023-02-19T01:59:09.226Z,12.56
2023-02-19T02:01:39.951Z,12.60
2023-02-19T02:04:11.011Z,12.61
2023-02-19T02:06:45.076Z,12.62
2023-02-19T02:09:31.334Z,12.61
2023-02-19T02:11:59.974Z,12.61
2023-02-19T02:14:33.699Z,12.57
2023-02-19T02:17:14.977Z,12.47
2023-02-19T02:20:02.553Z,12.43
2023-02-19T02:22:36.377Z,12.43
2023-02-19T02:25:34.517Z,12.32
2023-02-19T02:28:28.348Z,12.31
2023-02-19T02:31:00.927Z,12.36
2023-02-19T02:33:36.980Z,12.35
2023-02-19T02:36:08.992Z,12.36
2023-02-19T02:38:43.989Z,12.41
2023-02-19T02:41:14.453Z,12.38
2023-02-19T02:43:42.961Z,12.41
2023-02-19T02:46:14.536Z,12.37
2023-02-19T02:48:53.855Z,12.35
2023-02-19T02:51:26.862Z,12.31
2023-02-19T02:54:29.620Z,12.31
2023-02-19T02:57:01.013Z,12.33
2023-02-19T02:59:34.378Z,12.18
2023-02-19T03:02:11.519Z,12.12
2023-02-19T03:05:09.718Z,12.12
2023-02-19T03:07:41.382Z,12.14
2023-02-19T03:10:14.845Z,12.16
2023-02-19T03:13:03.718Z,12.08
2023-02-19T03:15:55.786Z,12.01
2023-02-19T03:18:46.726Z,12.01
2023-02-19T03:21:18.253Z,12.01
2023-02-19T03:24:05.317Z,12.07
2023-02-19T03:26:35.098Z,12.10
2023-02-19T03:29:22.822Z,12.07
2023-02-19T03:31:57.473Z,12.05
2023-02-19T03:34:35.968Z,12.08
2023-02-19T03:37:11.289Z,12.10
2023-02-19T03:39:44.497Z,12.08
2023-02-19T03:42:26.947Z,12.07
2023-02-19T03:45:09.504Z,12.07
2023-02-19T03:47:50.976Z,12.06
2023-02-19T03:50:25.073Z,12.08
2023-02-19T03:53:00.786Z,12.14
2023-02-19T03:55:36.246Z,12.15
2023-02-19T03:58:10.009Z,12.16
2023-02-19T04:00:45.058Z,12.17
2023-02-19T04:03:20.632Z,12.18
2023-02-19T04:05:54.806Z,12.17
2023-02-19T04:08:25.569Z,12.18
2023-02-19T04:11:01.668Z,12.20
2023-02-19T04:13:37.087Z,12.18
2023-02-19T04:16:10.053Z,12.15
2023-02-19T04:18:42.231Z,12.13
2023-02-19T04:21:12.537Z,12.10
2023-02-19T04:23:43.478Z,12.10
2023-02-19T04:26:13.334Z,12.12
2023-02-19T04:28:43.790Z,12.14
2023-02-19T04:31:12.710Z,12.14
2023-02-19T04:33:41.218Z,12.17
2023-02-19T04:36:12.975Z,12.17
2023-02-19T04:38:41.337Z,12.11
2023-02-19T04:41:10.698Z,12.11
2023-02-19T04:43:39.155Z,12.08
2023-02-19T04:46:07.452Z,12.08
2023-02-19T04:48:35.786Z,12.08
2023-02-19T04:51:07.191Z,12.08
2023-02-19T04:53:37.478Z,12.12
2023-02-19T04:56:10.683Z,12.12
2023-02-19T04:58:39.376Z,12.11
2023-02-19T05:01:08.032Z,12.08
2023-02-19T05:03:37.419Z,12.04
2023-02-19T05:06:06.564Z,11.94
2023-02-19T05:08:36.598Z,11.82
2023-02-19T05:11:07.231Z,11.79
2023-02-19T05:13:35.684Z,11.77
2023-02-19T05:16:08.108Z,11.72
2023-02-19T05:18:36.566Z,11.76
2023-02-19T05:21:05.193Z,11.77
2023-02-19T05:23:33.511Z,11.79
2023-02-19T05:26:06.543Z,11.79
2023-02-19T05:28:35.300Z,11.83
2023-02-19T05:31:06.841Z,11.62
2023-02-19T05:33:35.555Z,11.45
2023-02-19T05:36:07.568Z,11.69
2023-02-19T05:38:36.357Z,11.78
2023-02-19T05:41:14.965Z,11.77
2023-02-19T05:43:45.114Z,11.79
2023-02-19T05:46:14.688Z,11.81
2023-02-19T05:48:43.216Z,11.78
2023-02-19T05:51:13.220Z,11.77
2023-02-19T05:53:42.740Z,11.81
2023-02-19T05:56:27.869Z,11.82
2023-02-19T05:58:56.876Z,11.84
2023-02-19T06:01:26.798Z,11.88
2023-02-19T06:03:57.340Z,11.91
2023-02-19T06:06:27.175Z,11.89
2023-02-19T06:08:55.878Z,11.86
2023-02-19T06:11:26.241Z,11.86
2023-02-19T06:13:54.573Z,11.87
2023-02-19T06:16:23.062Z,11.89
2023-02-19T06:18:51.677Z,11.92
2023-02-19T06:21:20.650Z,11.94
2023-02-19T06:23:48.902Z,11.96
2023-02-19T06:26:19.380Z,11.99
2023-02-19T06:28:50.657Z,12.00
2023-02-19T06:31:19.682Z,12.02
2023-02-19T06:33:48.351Z,12.05
2023-02-19T06:36:18.234Z,12.10
2023-02-19T06:38:46.811Z,12.07
2023-02-19T06:41:15.670Z,12.06
2023-02-19T06:43:44.114Z,12.05
2023-02-19T06:46:14.667Z,12.02
2023-02-19T06:48:44.644Z,12.02
2023-02-19T06:51:14.480Z,12.02
2023-02-19T06:53:42.922Z,12.01
2023-02-19T06:56:25.196Z,11.99
2023-02-19T06:58:53.821Z,11.98
2023-02-19T07:01:23.875Z,12.00
2023-02-19T07:03:52.676Z,11.99
2023-02-19T07:06:21.754Z,11.99
2023-02-19T07:08:50.538Z,12.00
2023-02-19T07:11:19.530Z,12.02
2023-02-19T07:13:48.269Z,12.04
2023-02-19T07:16:17.993Z,12.05
2023-02-19T07:18:47.765Z,12.08
2023-02-19T07:21:17.447Z,12.08
2023-02-19T07:23:46.754Z,12.10
2023-02-19T07:26:17.143Z,12.11
2023-02-19T07:28:46.693Z,12.12
2023-02-19T07:31:15.970Z,12.10
2023-02-19T07:33:44.909Z,12.11
2023-02-19T07:36:16.882Z,12.08
2023-02-19T07:38:45.391Z,12.08
2023-02-19T07:41:13.994Z,12.10
2023-02-19T07:43:42.909Z,12.11
2023-02-19T07:46:13.276Z,12.06
2023-02-19T07:48:43.126Z,12.10
2023-02-19T07:51:16.532Z,12.22
2023-02-19T07:53:44.851Z,12.61
2023-02-19T07:56:13.856Z,13.03
2023-02-19T07:58:42.236Z,13.37
2023-02-19T08:01:12.443Z,13.75
2023-02-19T08:03:40.258Z,14.23
2023-02-19T08:06:09.143Z,14.27
2023-02-19T08:08:38.890Z,14.27
2023-02-19T08:11:25.587Z,14.11
2023-02-19T08:13:54.457Z,13.90
2023-02-19T08:16:40.692Z,13.83
2023-02-19T08:19:11.119Z,13.86
2023-02-19T08:21:39.410Z,14.10
2023-02-19T08:24:09.300Z,14.34
2023-02-19T08:26:38.474Z,14.53
2023-02-19T08:29:07.448Z,14.57
2023-02-19T08:31:36.632Z,14.56
2023-02-19T08:34:05.095Z,14.63
2023-02-19T08:36:33.532Z,14.82
2023-02-19T08:39:01.749Z,15.04
2023-02-19T08:41:31.438Z,15.34
2023-02-19T08:43:59.716Z,15.84
2023-02-19T08:46:27.974Z,16.24
2023-02-19T08:48:56.286Z,16.66
2023-02-19T08:51:24.593Z,17.17
2023-02-19T08:53:52.824Z,17.48
2023-02-19T08:56:21.107Z,17.77
2023-02-19T08:58:50.772Z,18.00
2023-02-19T09:01:19.475Z,18.22
2023-02-19T09:03:47.896Z,18.38
2023-02-19T09:06:18.531Z,18.62
2023-02-19T09:08:47.341Z,18.82
2023-02-19T09:11:16.214Z,18.95
2023-02-19T09:13:45.197Z,19.10
2023-02-19T09:16:14.884Z,18.99
2023-02-19T09:18:43.251Z,19.07
2023-02-19T09:21:11.854Z,18.95
2023-02-19T09:23:40.384Z,18.85
2023-02-19T09:26:10.180Z,19.05
2023-02-19T09:28:42.021Z,19.27
2023-02-19T09:31:12.565Z,19.60
2023-02-19T09:33:45.819Z,19.72
2023-02-19T09:36:15.796Z,19.75
2023-02-19T09:38:44.139Z,19.91
2023-02-19T09:41:19.161Z,19.95
2023-02-19T09:43:47.853Z,20.26
2023-02-19T09:46:26.102Z,20.62
2023-02-19T09:49:00.067Z,21.03
2023-02-19T09:51:29.793Z,20.96
2023-02-19T09:53:59.152Z,20.59
2023-02-19T09:56:28.533Z,20.28
2023-02-19T09:58:59.461Z,20.50
2023-02-19T10:01:32.284Z,21.16
2023-02-19T10:04:02.142Z,21.21
2023-02-19T10:06:30.894Z,20.74
2023-02-19T10:09:14.798Z,19.81
2023-02-19T10:11:43.405Z,19.26
2023-02-19T10:14:17.207Z,19.24
2023-02-19T10:16:47.204Z,19.45
2023-02-19T10:19:17.725Z,19.95
2023-02-19T10:21:46.208Z,20.55
2023-02-19T10:24:21.724Z,21.30
2023-02-19T10:26:51.436Z,21.69
2023-02-19T10:29:21.722Z,21.27
2023-02-19T10:31:50.205Z,20.69
2023-02-19T10:34:22.314Z,20.27
2023-02-19T10:36:53.508Z,20.50
2023-02-19T10:39:42.258Z,20.15
2023-02-19T10:42:19.294Z,19.54
2023-02-19T10:44:50.599Z,18.97
2023-02-19T10:47:21.626Z,18.48
2023-02-19T10:49:52.129Z,18.22
2023-02-19T10:52:25.150Z,18.46
2023-02-19T10:54:56.504Z,19.42
2023-02-19T10:57:30.308Z,20.36
2023-02-19T11:00:02.421Z,21.05
2023-02-19T11:02:32.093Z,21.45
2023-02-19T11:05:16.352Z,21.77
2023-02-19T11:07:50.183Z,21.88
2023-02-19T11:10:26.812Z,22.34
2023-02-19T11:12:57.493Z,22.78
2023-02-19T11:15:30.772Z,23.50
2023-02-19T11:18:03.832Z,24.19
2023-02-19T11:20:33.832Z,24.40
2023-02-19T11:23:06.708Z,24.45
2023-02-19T11:25:35.360Z,23.26
2023-02-19T11:28:07.450Z,22.06
2023-02-19T11:30:44.511Z,21.22
2023-02-19T11:33:36.752Z,20.59
2023-02-19T11:36:30.068Z,20.01
2023-02-19T11:39:00.353Z,19.54
2023-02-19T11:41:56.748Z,19.02
2023-02-19T11:44:32.976Z,18.68
2023-02-19T11:47:31.669Z,18.99
2023-02-19T11:50:07.617Z,19.56
2023-02-19T11:52:48.496Z,20.25
2023-02-19T11:55:38.990Z,20.59
2023-02-19T11:58:38.333Z,20.30
2023-02-19T12:01:13.711Z,19.67
2023-02-19T12:04:17.769Z,18.99
2023-02-19T12:06:54.668Z,18.70
2023-02-19T12:09:39.352Z,18.40
2023-02-19T12:12:24.444Z,18.04
2023-02-19T12:15:25.032Z,17.81
2023-02-19T12:18:10.998Z,17.45
2023-02-19T12:20:50.196Z,17.26
2023-02-19T12:27:44.479Z,16.74
2023-02-19T12:30:39.507Z,16.70
2023-02-19T12:33:32.431Z,16.75
2023-02-19T12:36:08.311Z,16.71
2023-02-19T12:38:44.884Z,16.48
2023-02-19T12:41:23.348Z,16.44
2023-02-19T12:44:00.062Z,16.39
2023-02-19T12:46:33.262Z,16.46
2023-02-19T12:49:07.864Z,16.57
2023-02-19T12:51:43.225Z,16.75
2023-02-19T12:54:16.053Z,16.87
2023-02-19T12:56:49.437Z,16.84
2023-02-19T12:59:25.539Z,16.77
2023-02-19T13:01:59.058Z,16.72
2023-02-19T13:04:34.043Z,16.78
2023-02-19T13:07:07.216Z,16.78
2023-02-19T13:09:39.365Z,16.89
2023-02-19T13:12:13.737Z,17.01
2023-02-19T13:14:45.839Z,17.26
2023-02-19T13:17:23.844Z,17.52
2023-02-19T13:19:56.571Z,17.80
2023-02-19T13:22:49.988Z,17.79
2023-02-19T13:25:20.174Z,17.76
2023-02-19T13:28:08.929Z,17.72
2023-02-19T13:31:17.400Z,17.77
2023-02-19T13:33:55.353Z,17.92
2023-02-19T13:36:27.272Z,17.83
2023-02-19T13:38:58.245Z,17.89
2023-02-19T13:41:30.057Z,17.88
2023-02-19T13:44:01.714Z,17.99
2023-02-19T13:46:40.262Z,18.22
2023-02-19T13:49:43.177Z,18.34
2023-02-19T13:52:39.441Z,18.58
2023-02-19T13:55:42.334Z,18.81
2023-02-19T13:58:51.500Z,18.97
2023-02-19T14:01:19.820Z,19.36
2023-02-19T14:03:54.933Z,19.20
2023-02-19T14:06:23.031Z,19.26
2023-02-19T14:08:57.081Z,19.57
2023-02-19T14:12:03.880Z,19.62
2023-02-19T14:14:36.889Z,19.75
2023-02-19T14:17:29.564Z,19.91
2023-02-19T14:20:01.142Z,19.92
2023-02-19T14:23:01.592Z,19.71
2023-02-19T14:25:39.349Z,19.31
2023-02-19T14:28:18.252Z,18.82
2023-02-19T14:30:51.777Z,18.51
2023-02-19T14:33:23.191Z,18.68
2023-02-19T14:35:55.924Z,18.80
2023-02-19T14:38:28.340Z,19.01
2023-02-19T14:40:57.380Z,19.29
2023-02-19T14:43:26.851Z,19.11
2023-02-19T14:45:58.870Z,18.71
2023-02-19T14:48:31.627Z,18.46
2023-02-19T14:51:09.082Z,18.41
2023-02-19T14:53:40.768Z,18.36
2023-02-19T14:56:20.455Z,18.30
2023-02-19T14:59:07.468Z,18.19
2023-02-19T15:01:35.602Z,18.24
2023-02-19T15:04:03.693Z,18.14
2023-02-19T15:06:35.266Z,18.04
2023-02-19T15:09:07.041Z,17.85
2023-02-19T15:11:37.002Z,17.69
2023-02-19T15:14:08.054Z,17.64
2023-02-19T15:16:37.487Z,17.62
2023-02-19T15:19:09.064Z,17.33
2023-02-19T15:21:41.129Z,17.25
2023-02-19T15:24:09.363Z,17.20
2023-02-19T15:26:40.508Z,17.10
2023-02-19T15:29:12.286Z,16.99
2023-02-19T15:31:46.810Z,16.79
2023-02-19T15:34:20.437Z,16.63
2023-02-19T15:36:52.241Z,16.46
2023-02-19T15:39:25.188Z,16.35
2023-02-19T15:42:00.071Z,16.22
2023-02-19T15:44:39.289Z,16.14
2023-02-19T15:47:15.554Z,15.98
2023-02-19T15:49:50.064Z,15.84
2023-02-19T15:52:26.187Z,15.75
2023-02-19T15:54:59.557Z,15.67
2023-02-19T15:57:33.158Z,15.56
2023-02-19T16:00:08.273Z,15.49
2023-02-19T16:02:44.550Z,15.44
2023-02-19T16:05:16.017Z,15.34
2023-02-19T16:07:45.433Z,15.29
2023-02-19T16:10:22.713Z,15.15
2023-02-19T16:12:58.201Z,15.03
2023-02-19T16:15:26.616Z,14.92
2023-02-19T16:17:56.522Z,14.70
2023-02-19T16:20:28.513Z,14.62
2023-02-19T16:23:03.746Z,14.56
2023-02-19T16:25:37.548Z,14.50
2023-02-19T16:28:13.104Z,14.40
2023-02-19T16:30:41.740Z,14.38
2023-02-19T16:33:36.248Z,14.25
2023-02-19T16:36:26.321Z,14.14
2023-02-19T16:39:24.241Z,14.05
2023-02-19T16:42:15.159Z,13.73
2023-02-19T16:44:48.035Z,13.85
2023-02-19T16:47:38.300Z,13.74
2023-02-19T16:50:13.750Z,13.74
2023-02-19T16:52:52.355Z,13.63
2023-02-19T16:55:22.107Z,13.61
2023-02-19T16:57:50.595Z,13.49
2023-02-19T17:00:20.190Z,13.38
2023-02-19T17:02:49.298Z,13.31
2023-02-19T17:05:18.232Z,13.27
2023-02-19T17:07:46.325Z,13.25
2023-02-19T17:10:17.291Z,13.10
2023-02-19T17:12:47.115Z,13.10
2023-02-19T17:15:15.490Z,13.01
2023-02-19T17:17:43.614Z,12.94
2023-02-19T17:20:22.874Z,12.89
2023-02-19T17:22:51.097Z,12.82
2023-02-19T17:25:19.170Z,12.79
2023-02-19T17:27:48.851Z,12.70
2023-02-19T17:30:21.019Z,12.67
2023-02-19T17:32:49.059Z,12.56
2023-02-19T17:35:17.461Z,12.49
2023-02-19T17:37:45.527Z,12.51
2023-02-19T17:40:32.190Z,12.50
2023-02-19T17:43:03.018Z,12.51
2023-02-19T17:45:31.254Z,12.57
2023-02-19T17:47:59.736Z,12.61
2023-02-19T17:50:29.557Z,12.62
2023-02-19T17:52:58.195Z,12.57
2023-02-19T17:55:26.614Z,12.58
2023-02-19T17:57:54.820Z,12.53
2023-02-19T18:00:25.968Z,12.50
2023-02-19T18:02:54.529Z,12.42
2023-02-19T18:05:23.278Z,12.45
2023-02-19T18:07:51.792Z,12.40
2023-02-19T18:10:21.432Z,12.42
2023-02-19T18:15:42.503Z,12.32
2023-02-19T18:18:10.793Z,12.23
2023-02-19T18:20:38.911Z,12.29
2023-02-19T18:23:07.121Z,12.30
2023-02-19T18:25:35.149Z,12.28
2023-02-19T18:28:03.218Z,12.31
2023-02-19T18:30:31.335Z,12.34
2023-02-19T18:33:00.817Z,12.34
2023-02-19T18:35:28.863Z,12.35
2023-02-19T18:37:56.947Z,12.28
2023-02-19T18:40:26.459Z,12.22
2023-02-19T18:42:54.971Z,12.14
2023-02-19T18:45:23.269Z,12.13
2023-02-19T18:47:51.794Z,12.06
2023-02-19T18:50:21.887Z,11.98
2023-02-19T18:52:49.974Z,12.00
2023-02-19T18:55:18.011Z,11.99
2023-02-19T18:57:46.740Z,12.01
2023-02-19T19:00:19.801Z,11.97
2023-02-19T19:02:50.063Z,11.98
2023-02-19T19:05:23.160Z,11.98
2023-02-19T19:07:52.433Z,12.02
2023-02-19T19:10:20.784Z,11.96
2023-02-19T19:12:49.151Z,11.94
2023-02-19T19:15:18.426Z,11.90
2023-02-19T19:17:46.758Z,11.86
2023-02-19T19:20:15.608Z,11.87
2023-02-19T19:22:45.028Z,11.83
2023-02-19T19:25:13.493Z,11.85
2023-02-19T19:27:41.540Z,11.85
2023-02-19T19:30:10.215Z,11.96
2023-02-19T19:32:38.320Z,11.90
2023-02-19T19:35:06.630Z,11.94
2023-02-19T19:37:34.849Z,11.90
2023-02-19T19:40:05.097Z,11.99
2023-02-19T19:42:33.148Z,12.02
2023-02-19T19:45:01.258Z,11.99
2023-02-19T19:47:29.514Z,12.00
2023-02-19T19:49:57.674Z,12.01
2023-02-19T19:52:25.731Z,12.00
2023-02-19T19:54:54.172Z,11.94
2023-02-19T19:57:23.732Z,11.87
2023-02-19T19:59:52.391Z,11.93
2023-02-19T20:02:20.983Z,11.93
2023-02-19T20:04:49.056Z,11.92
2023-02-19T20:07:17.161Z,11.89
2023-02-19T20:09:48.923Z,11.88
2023-02-19T20:12:17.128Z,11.87
2023-02-19T20:14:47.807Z,11.91
2023-02-19T20:17:16.316Z,11.84
2023-02-19T20:19:44.457Z,11.89
2023-02-19T20:22:13.259Z,12.02
2023-02-19T20:24:41.320Z,11.92
2023-02-19T20:27:09.371Z,11.91
2023-02-19T20:29:37.439Z,11.85
2023-02-19T20:32:06.987Z,11.87
2023-02-19T20:34:35.097Z,11.97
2023-02-19T20:37:03.099Z,11.86
2023-02-19T20:39:31.922Z,11.84
2023-02-19T20:42:00.776Z,11.91
2023-02-19T20:44:29.820Z,11.85
2023-02-19T20:46:59.596Z,11.96
2023-02-19T20:49:31.568Z,11.90
2023-02-19T20:52:01.658Z,11.90
2023-02-19T20:54:31.557Z,11.93
2023-02-19T20:57:02.194Z,12.01
2023-02-19T20:59:34.989Z,11.94
2023-02-19T21:02:04.110Z,12.00
2023-02-19T21:04:33.628Z,11.93
2023-02-19T21:07:01.727Z,12.05
2023-02-19T21:09:29.770Z,12.00
2023-02-19T21:11:58.490Z,11.87
2023-02-19T21:14:27.263Z,11.90
2023-02-19T21:16:55.356Z,12.07
2023-02-19T21:19:23.481Z,12.07
2023-02-19T21:21:52.896Z,12.00
2023-02-19T21:24:20.934Z,12.07
2023-02-19T21:26:48.966Z,12.12
2023-02-19T21:29:19.719Z,12.12
2023-02-19T21:31:49.967Z,12.08
2023-02-19T21:34:21.456Z,12.14
2023-02-19T21:36:49.744Z,12.02
2023-02-19T21:39:21.272Z,12.08
2023-02-19T21:41:49.726Z,12.06
2023-02-19T21:44:18.120Z,12.14
2023-02-19T21:46:46.206Z,12.18
2023-02-19T21:49:14.396Z,12.11
2023-02-19T21:51:44.319Z,12.16
2023-02-19T21:54:16.208Z,12.05
2023-02-19T21:56:46.084Z,12.02
2023-02-19T21:59:14.396Z,12.05
2023-02-19T22:01:43.430Z,12.13
2023-02-19T22:04:14.336Z,12.11
2023-02-19T22:06:42.691Z,12.06
2023-02-19T22:09:12.050Z,12.13
2023-02-19T22:11:40.074Z,12.10
2023-02-19T22:14:09.502Z,12.12
2023-02-19T22:16:37.635Z,11.94
2023-02-19T22:19:05.896Z,12.02
2023-02-19T22:21:34.251Z,11.93
2023-02-19T22:24:03.874Z,11.99
2023-02-19T22:26:34.005Z,12.03
2023-02-19T22:29:05.926Z,12.03
2023-02-19T22:31:36.660Z,11.99
2023-02-19T22:34:05.648Z,11.92
2023-02-19T22:36:36.953Z,11.99
2023-02-19T22:39:06.508Z,12.04
2023-02-19T22:41:34.986Z,11.85
2023-02-19T22:44:03.257Z,11.81
2023-02-19T22:46:32.108Z,11.81
2023-02-19T22:49:04.471Z,11.86
2023-02-19T22:51:33.104Z,11.92
2023-02-19T22:54:01.695Z,11.96
2023-02-19T22:56:30.446Z,12.01
2023-02-19T22:58:59.096Z,12.04
2023-02-19T23:01:27.339Z,11.91
2023-02-19T23:03:56.877Z,11.98
2023-02-19T23:06:28.603Z,11.97
2023-02-19T23:08:58.897Z,11.86
2023-02-19T23:11:28.665Z,12.04
2023-02-19T23:13:56.863Z,12.02
2023-02-19T23:16:25.386Z,11.85
2023-02-19T23:18:53.631Z,11.98
2023-02-19T23:21:23.443Z,12.10
2023-02-19T23:23:52.853Z,11.96
2023-02-19T23:26:22.820Z,11.89
2023-02-19T23:28:51.345Z,11.97
2023-02-19T23:31:19.949Z,12.15
2023-02-19T23:33:48.315Z,12.14
2023-02-19T23:36:16.844Z,12.12
2023-02-19T23:38:46.280Z,12.11
2023-02-19T23:41:17.390Z,12.14
2023-02-19T23:43:46.145Z,12.18
2023-02-19T23:46:18.343Z,12.21
2023-02-19T23:48:47.037Z,12.25
2023-02-19T23:51:15.397Z,12.29
2023-02-19T23:53:43.418Z,12.28
2023-02-19T23:56:11.826Z,12.26
2023-02-19T23:58:41.417Z,12.26
